Time;durP1;ratioP1;P1;durP2;ratioP2;P2;SDS_P1;SDS_P2;PMS_P1;PMS_P2;Temp;Humidity;BMP_temperature;BMP_pressure;BME280_temperature;BME280_humidity;BME280_pressure;Samples;Min_cycle;Max_cycle;Signal;HPM_P1;HPM_P2
2021/12/14 00:01:38;;;;;;;17.08;12.88;;;9.40;95.20;;;;;;5035574;28;20476;-70
2021/12/14 00:04:17;;;;;;;17.48;13.43;;;9.40;95.20;;;;;;5033349;28;20066;-70
2021/12/14 00:06:46;;;;;;;20.15;12.90;;;9.40;95.20;;;;;;5041773;28;20032;-70
2021/12/14 00:09:23;;;;;;;17.35;13.00;;;9.40;95.20;;;;;;5048479;28;20033;-70
2021/12/14 00:12:08;;;;;;;17.58;12.00;;;9.40;95.20;;;;;;5044758;28;20499;-70
2021/12/14 00:17:21;;;;;;;20.45;13.55;;;9.40;94.80;;;;;;5033549;28;20538;-70
2021/12/14 00:19:49;;;;;;;19.48;13.75;;;9.40;94.90;;;;;;5042358;28;20074;-70
2021/12/14 00:24:06;;;;;;;19.95;13.85;;;9.40;95.00;;;;;;5044822;28;20025;-70
2021/12/14 00:25:31;;;;;;;17.33;12.95;;;9.40;95.10;;;;;;5034473;28;20036;-70
2021/12/14 00:28:00;;;;;;;17.55;12.63;;;9.40;95.10;;;;;;5032529;28;20049;-70
2021/12/14 00:30:26;;;;;;;18.90;13.45;;;9.40;94.90;;;;;;5046087;28;20443;-70
2021/12/14 00:32:52;;;;;;;18.90;13.23;;;9.40;94.70;;;;;;5040811;28;20116;-70
2021/12/14 00:35:20;;;;;;;18.25;13.10;;;9.30;94.40;;;;;;5043822;28;20536;-70
2021/12/14 00:37:50;;;;;;;18.48;13.40;;;9.30;93.90;;;;;;5037222;28;20137;-70
2021/12/14 00:40:23;;;;;;;17.83;13.15;;;9.30;93.60;;;;;;5034708;28;20033;-70
2021/12/14 00:42:50;;;;;;;20.60;14.15;;;9.30;93.70;;;;;;5032301;28;20492;-70
2021/12/14 00:45:18;;;;;;;17.95;13.60;;;9.30;93.80;;;;;;5042599;28;20032;-70
2021/12/14 00:47:44;;;;;;;19.55;13.18;;;9.20;93.40;;;;;;5047494;28;20032;-70
2021/12/14 00:50:11;;;;;;;17.40;12.77;;;9.20;93.40;;;;;;5045088;28;20021;-70
2021/12/14 00:52:37;;;;;;;19.88;13.70;;;9.20;93.40;;;;;;5047493;28;20499;-70
2021/12/14 00:55:07;;;;;;;18.13;12.48;;;9.20;93.50;;;;;;5043380;28;20033;-70
2021/12/14 00:57:36;;;;;;;19.52;13.65;;;9.10;93.40;;;;;;5037966;28;20044;-70
2021/12/14 01:00:07;;;;;;;20.23;14.02;;;9.10;93.60;;;;;;5046792;28;20121;-70
2021/12/14 01:02:33;;;;;;;21.17;13.93;;;9.10;93.70;;;;;;5039948;28;20029;-70
2021/12/14 01:05:04;;;;;;;18.67;13.75;;;9.10;94.00;;;;;;5046229;28;20025;-70
2021/12/14 01:07:31;;;;;;;20.45;14.00;;;9.10;94.20;;;;;;5050831;28;20032;-70
2021/12/14 01:10:00;;;;;;;19.25;13.80;;;9.10;94.30;;;;;;5048953;28;20036;-70
2021/12/14 01:12:37;;;;;;;19.67;14.18;;;9.10;94.40;;;;;;5034461;28;20029;-70
2021/12/14 01:15:31;;;;;;;22.25;15.48;;;9.20;94.50;;;;;;5048834;28;20053;-70
2021/12/14 01:20:47;;;;;;;20.05;14.02;;;9.20;94.60;;;;;;5038135;28;20108;-70
2021/12/14 01:23:18;;;;;;;18.88;14.05;;;9.20;94.70;;;;;;5037662;28;20040;-70
2021/12/14 01:25:49;;;;;;;22.55;14.35;;;9.20;94.70;;;;;;5044496;28;20105;-70
2021/12/14 01:28:23;;;;;;;21.33;14.55;;;9.20;94.80;;;;;;5045574;28;20017;-70
2021/12/14 01:31:04;;;;;;;22.08;15.18;;;9.20;94.90;;;;;;5049391;28;20500;-70
2021/12/14 01:33:31;;;;;;;24.52;15.93;;;9.20;94.90;;;;;;5043904;28;20524;-70
2021/12/14 01:35:59;;;;;;;23.33;15.38;;;9.20;95.00;;;;;;5045710;28;20522;-70
2021/12/14 01:40:58;;;;;;;23.15;15.27;;;9.20;95.00;;;;;;5046458;28;20068;-70
2021/12/14 01:43:39;;;;;;;24.60;15.70;;;9.20;95.00;;;;;;5047696;28;20443;-70
2021/12/14 01:46:14;;;;;;;20.90;14.32;;;9.20;95.00;;;;;;5044999;28;20016;-70
2021/12/14 01:48:41;;;;;;;21.42;14.40;;;9.20;95.00;;;;;;5038753;28;20091;-70
2021/12/14 01:51:08;;;;;;;22.83;15.32;;;9.20;94.90;;;;;;5035654;28;20032;-70
2021/12/14 01:53:36;;;;;;;23.38;15.48;;;9.20;94.90;;;;;;5037629;28;20033;-70
2021/12/14 01:56:06;;;;;;;23.50;15.65;;;9.20;94.90;;;;;;5038504;28;20107;-70
2021/12/14 01:58:54;;;;;;;23.42;15.70;;;9.20;94.80;;;;;;5047628;28;20025;-69
2021/12/14 02:01:28;;;;;;;23.20;15.00;;;9.20;94.60;;;;;;5047349;28;20036;-70
2021/12/14 02:04:06;;;;;;;24.27;15.70;;;9.20;94.70;;;;;;5033205;28;20021;-70
2021/12/14 02:06:33;;;;;;;24.60;15.82;;;9.10;94.80;;;;;;5049253;28;20037;-70
2021/12/14 02:09:10;;;;;;;23.08;15.25;;;9.10;94.80;;;;;;5044496;28;20021;-70
2021/12/14 02:11:49;;;;;;;21.38;14.70;;;9.10;94.80;;;;;;5049323;28;20033;-70
2021/12/14 02:14:16;;;;;;;23.73;15.07;;;9.10;94.90;;;;;;5042460;28;20017;-70
2021/12/14 02:16:43;;;;;;;22.52;15.00;;;9.10;94.90;;;;;;5043001;28;20124;-70
2021/12/14 02:19:14;;;;;;;23.55;16.27;;;9.10;94.90;;;;;;5044166;28;20051;-70
2021/12/14 02:21:42;;;;;;;23.45;15.57;;;9.10;94.90;;;;;;5032853;28;20037;-70
2021/12/14 02:24:09;;;;;;;23.45;15.82;;;9.10;95.00;;;;;;5038206;28;20052;-70
2021/12/14 02:26:39;;;;;;;27.83;16.52;;;9.10;94.70;;;;;;5048895;28;20056;-70
2021/12/14 02:29:09;;;;;;;24.77;16.35;;;9.10;94.60;;;;;;5042733;28;20033;-70
2021/12/14 02:31:38;;;;;;;25.15;16.67;;;9.10;94.60;;;;;;5043341;28;20070;-70
2021/12/14 02:34:05;;;;;;;25.08;17.02;;;9.10;94.70;;;;;;5035686;28;20040;-70
2021/12/14 02:36:38;;;;;;;25.95;16.98;;;9.10;94.90;;;;;;5032918;28;20040;-70
2021/12/14 02:39:11;;;;;;;23.83;15.85;;;9.10;95.00;;;;;;5047939;28;20106;-70
2021/12/14 02:41:50;;;;;;;24.48;16.67;;;9.10;95.00;;;;;;5044307;28;20041;-70
2021/12/14 02:44:16;;;;;;;24.50;16.40;;;9.10;95.10;;;;;;5043636;28;20037;-70
2021/12/14 02:46:46;;;;;;;23.83;16.05;;;9.10;95.00;;;;;;5046917;28;20070;-70
2021/12/14 02:49:16;;;;;;;23.50;16.45;;;9.10;95.00;;;;;;5038636;28;20124;-69
2021/12/14 02:51:49;;;;;;;23.30;15.82;;;9.10;95.00;;;;;;5045017;28;20040;-70
2021/12/14 02:54:19;;;;;;;25.20;16.40;;;9.10;95.00;;;;;;5046646;28;20376;-70
2021/12/14 02:56:50;;;;;;;24.48;15.63;;;9.10;95.00;;;;;;5036312;28;20057;-70
2021/12/14 02:59:20;;;;;;;22.73;14.57;;;9.10;95.00;;;;;;5044390;28;20503;-70
2021/12/14 03:01:48;;;;;;;22.10;14.93;;;9.10;95.00;;;;;;5041540;28;20033;-70
2021/12/14 03:04:14;;;;;;;20.58;14.10;;;9.10;94.70;;;;;;5034135;28;20078;-70
2021/12/14 03:06:53;;;;;;;22.27;14.13;;;9.10;94.70;;;;;;5044430;28;20038;-69
2021/12/14 03:12:40;;;;;;;23.05;14.43;;;9.10;94.80;;;;;;5027195;28;20038;-70
2021/12/14 03:15:16;;;;;;;20.98;14.18;;;9.10;94.60;;;;;;5027375;28;20034;-69
2021/12/14 03:17:45;;;;;;;23.17;14.23;;;9.00;94.80;;;;;;5015479;28;20053;-69
2021/12/14 03:20:34;;;;;;;23.40;14.77;;;9.10;94.90;;;;;;5014988;28;20040;-69
2021/12/14 03:23:26;;;;;;;26.35;15.32;;;9.10;94.90;;;;;;5018119;28;20107;-70
2021/12/14 03:25:56;;;;;;;21.75;14.57;;;9.10;94.90;;;;;;5026610;28;20117;-69
2021/12/14 03:28:25;;;;;;;20.98;14.43;;;9.10;95.00;;;;;;5025214;28;20524;-70
2021/12/14 03:30:53;;;;;;;22.95;14.70;;;9.10;95.10;;;;;;5025032;28;20083;-70
2021/12/14 03:33:25;;;;;;;21.63;14.50;;;9.10;95.10;;;;;;5026029;28;20033;-69
2021/12/14 03:35:57;;;;;;;20.65;13.55;;;9.10;94.80;;;;;;5027132;28;20037;-69
2021/12/14 03:38:36;;;;;;;20.42;13.48;;;9.10;94.80;;;;;;5015923;28;20042;-70
2021/12/14 03:41:09;;;;;;;19.35;13.18;;;9.10;94.80;;;;;;5024792;28;20207;-70
2021/12/14 03:43:37;;;;;;;20.38;13.15;;;9.10;94.50;;;;;;5021589;28;20069;-70
2021/12/14 03:46:04;;;;;;;19.10;12.90;;;9.10;94.30;;;;;;5022058;28;20033;-69
2021/12/14 03:48:32;;;;;;;20.17;12.90;;;9.00;94.10;;;;;;5026125;28;20037;-70
2021/12/14 03:50:59;;;;;;;20.40;12.93;;;9.00;94.20;;;;;;5056078;28;20036;-70
2021/12/14 03:53:25;;;;;;;20.67;13.55;;;9.00;94.30;;;;;;5048158;28;20032;-69
2021/12/14 03:55:56;;;;;;;20.45;13.52;;;9.00;94.40;;;;;;5049251;28;20041;-70
2021/12/14 03:58:35;;;;;;;20.95;13.52;;;9.00;94.60;;;;;;5048518;28;20036;-69
2021/12/14 04:01:16;;;;;;;20.15;13.60;;;9.00;94.70;;;;;;5044965;28;20029;-70
2021/12/14 04:03:44;;;;;;;20.98;13.40;;;9.00;94.80;;;;;;5032531;28;20036;-70
2021/12/14 04:06:11;;;;;;;21.75;12.85;;;9.00;94.90;;;;;;5033618;28;20021;-70
2021/12/14 04:08:37;;;;;;;22.55;14.80;;;9.00;94.90;;;;;;5050651;28;20075;-69
2021/12/14 04:11:05;;;;;;;21.13;13.35;;;9.00;95.00;;;;;;5040496;28;20088;-69
2021/12/14 04:13:35;;;;;;;25.45;14.23;;;9.00;95.10;;;;;;5034762;28;20548;-69
2021/12/14 04:16:01;;;;;;;23.73;14.13;;;9.00;95.10;;;;;;5034989;28;20045;-70
2021/12/14 04:18:28;;;;;;;23.60;14.48;;;9.00;95.50;;;;;;5037009;28;20076;-70
2021/12/14 04:20:56;;;;;;;23.17;14.30;;;9.00;95.00;;;;;;5052124;28;20519;-70
2021/12/14 04:23:25;;;;;;;22.50;14.10;;;9.00;95.10;;;;;;5053523;28;20112;-70
2021/12/14 04:25:54;;;;;;;24.58;14.75;;;9.00;95.10;;;;;;5054397;28;20523;-70
2021/12/14 04:28:26;;;;;;;20.90;13.50;;;9.00;95.10;;;;;;5041860;28;20037;-70
2021/12/14 04:30:53;;;;;;;26.70;15.77;;;9.00;95.00;;;;;;5050164;28;20025;-70
2021/12/14 04:33:28;;;;;;;24.38;14.02;;;9.00;95.10;;;;;;5060196;28;20117;-70
2021/12/14 04:35:55;;;;;;;22.42;14.10;;;9.00;95.10;;;;;;5039398;28;20095;-70
2021/12/14 04:38:27;;;;;;;23.20;14.07;;;9.00;95.10;;;;;;5049924;28;20415;-70
2021/12/14 04:52:06;;;;;;;24.63;14.20;;;9.00;94.90;;;;;;5048224;28;20041;-70
2021/12/14 04:54:42;;;;;;;22.77;14.27;;;8.90;94.60;;;;;;5056621;28;20027;-70
2021/12/14 04:57:24;;;;;;;23.40;14.63;;;8.90;94.70;;;;;;5051628;28;20091;-70
2021/12/14 04:59:54;;;;;;;22.80;13.68;;;8.90;94.60;;;;;;5043933;28;20013;-69
2021/12/14 05:02:26;;;;;;;21.05;13.50;;;8.90;94.60;;;;;;5048567;28;20037;-70
2021/12/14 05:04:55;;;;;;;23.27;13.27;;;8.90;94.50;;;;;;5058293;28;20142;-70
2021/12/14 05:10:19;;;;;;;22.50;13.48;;;8.90;94.00;;;;;;5046849;28;20393;-69
2021/12/14 05:12:45;;;;;;;22.80;13.57;;;8.90;94.00;;;;;;5051848;28;20037;-70
2021/12/14 05:15:13;;;;;;;22.17;13.43;;;8.80;94.00;;;;;;5045092;28;20024;-69
2021/12/14 05:17:40;;;;;;;22.60;13.32;;;8.80;93.90;;;;;;5051208;28;20068;-70
2021/12/14 05:20:09;;;;;;;21.10;12.90;;;8.80;94.00;;;;;;5042505;28;20029;-70
2021/12/14 05:22:37;;;;;;;21.08;13.48;;;8.70;94.40;;;;;;5050769;28;20080;-69
2021/12/14 05:25:25;;;;;;;21.38;12.75;;;8.70;94.00;;;;;;5037012;28;20025;-70
2021/12/14 05:27:57;;;;;;;21.95;12.57;;;8.70;94.20;;;;;;5057208;28;20108;-70
2021/12/14 05:30:42;;;;;;;23.08;13.38;;;8.70;94.30;;;;;;5052882;28;20020;-70
2021/12/14 05:33:12;;;;;;;21.05;12.48;;;8.70;94.50;;;;;;5047639;28;20503;-70
2021/12/14 05:35:40;;;;;;;23.35;14.02;;;8.70;94.60;;;;;;5045359;28;20021;-71
2021/12/14 05:38:16;;;;;;;22.02;12.90;;;8.70;94.70;;;;;;5041696;28;20040;-70
2021/12/14 05:43:24;;;;;;;24.70;13.63;;;8.70;95.00;;;;;;5047346;28;20116;-70
2021/12/14 05:45:54;;;;;;;22.60;12.93;;;8.80;95.10;;;;;;5043267;28;20024;-70
2021/12/14 05:48:23;;;;;;;21.13;13.23;;;8.80;95.20;;;;;;5035347;28;20028;-69
2021/12/14 05:50:53;;;;;;;23.50;13.82;;;8.80;95.20;;;;;;5037193;28;20108;-70
2021/12/14 05:53:25;;;;;;;23.60;13.93;;;8.80;95.30;;;;;;5038162;28;20033;-69
2021/12/14 05:55:51;;;;;;;21.15;11.32;;;8.80;95.30;;;;;;5051841;28;20033;-69
2021/12/14 05:58:20;;;;;;;25.98;14.65;;;8.80;95.00;;;;;;5047316;28;20369;-70
2021/12/14 06:00:51;;;;;;;26.40;14.70;;;8.80;94.40;;;;;;5056536;28;20029;-71
2021/12/14 06:03:26;;;;;;;23.35;13.70;;;8.80;94.00;;;;;;5063497;28;20024;-71
2021/12/14 06:05:53;;;;;;;24.50;14.32;;;8.70;94.00;;;;;;5047241;28;20048;-71
2021/12/14 06:08:22;;;;;;;29.10;15.35;;;8.70;94.00;;;;;;5051585;28;20115;-70
2021/12/14 06:10:48;;;;;;;27.33;15.00;;;8.70;94.30;;;;;;5049880;28;20037;-70
2021/12/14 06:13:17;;;;;;;29.52;16.17;;;8.70;94.60;;;;;;5036746;28;20459;-70
2021/12/14 06:15:43;;;;;;;28.60;15.35;;;8.70;94.80;;;;;;5046422;28;20038;-69
2021/12/14 06:18:09;;;;;;;29.98;15.75;;;8.70;94.90;;;;;;5055209;28;20499;-70
2021/12/14 06:20:35;;;;;;;26.08;15.00;;;8.70;95.10;;;;;;5046963;28;20487;-69
2021/12/14 06:23:01;;;;;;;27.70;15.73;;;8.70;94.80;;;;;;5042022;28;20026;-70
2021/12/14 06:25:28;;;;;;;27.92;15.30;;;8.70;94.60;;;;;;5043372;28;20030;-70
2021/12/14 06:27:59;;;;;;;29.58;15.98;;;8.70;94.30;;;;;;5057491;28;20434;-70
2021/12/14 06:30:32;;;;;;;24.52;14.07;;;8.70;94.20;;;;;;5046606;28;20025;-70
2021/12/14 06:33:00;;;;;;;29.35;15.18;;;8.70;94.80;;;;;;5046320;28;20025;-70
2021/12/14 06:35:30;;;;;;;29.42;16.30;;;8.70;94.50;;;;;;5048098;28;20033;-70
2021/12/14 06:40:34;;;;;;;31.42;15.55;;;8.60;94.90;;;;;;5035361;28;20064;-70
2021/12/14 06:43:04;;;;;;;31.23;16.15;;;8.70;94.90;;;;;;5047432;28;20032;-70
2021/12/14 06:45:37;;;;;;;31.10;15.90;;;8.60;94.90;;;;;;5049246;28;20447;-70
2021/12/14 06:48:20;;;;;;;30.85;16.08;;;8.60;95.00;;;;;;5049479;28;20025;-70
2021/12/14 06:50:50;;;;;;;34.00;16.73;;;8.70;95.30;;;;;;5047353;28;20120;-70
2021/12/14 06:53:19;;;;;;;33.67;16.98;;;8.70;95.40;;;;;;5050445;28;20078;-69
2021/12/14 06:55:48;;;;;;;33.35;17.52;;;8.70;95.50;;;;;;5042743;28;20037;-69
2021/12/14 06:58:24;;;;;;;32.45;17.05;;;8.70;95.50;;;;;;5046360;28;20060;-69
2021/12/14 07:01:13;;;;;;;27.70;15.18;;;8.80;95.50;;;;;;5033307;28;20057;-69
2021/12/14 07:03:57;;;;;;;32.25;17.05;;;8.70;95.40;;;;;;5033783;28;20049;-69
2021/12/14 07:06:38;;;;;;;34.95;17.33;;;8.70;95.10;;;;;;5032760;28;20071;-69
2021/12/14 07:09:08;;;;;;;;;;;8.70;95.10;;;;;;5052507;28;20020;-69
2021/12/14 07:11:35;;;;;;;40.80;19.05;;;8.70;95.10;;;;;;5042703;28;20319;-69
2021/12/14 07:14:05;;;;;;;36.50;17.48;;;8.70;95.30;;;;;;5039986;28;20404;-69
2021/12/14 07:16:38;;;;;;;40.65;18.85;;;8.70;95.10;;;;;;5035215;28;20029;-69
2021/12/14 07:19:05;;;;;;;41.97;18.95;;;8.60;95.20;;;;;;5035159;28;20060;-69
2021/12/14 07:21:37;;;;;;;35.70;17.95;;;8.60;95.30;;;;;;5031902;28;20028;-69
2021/12/14 07:24:28;;;;;;;41.97;18.20;;;8.70;95.40;;;;;;5047156;28;20029;-69
2021/12/14 07:27:21;;;;;;;35.78;17.52;;;8.60;95.00;;;;;;5045956;28;20036;-69
2021/12/14 07:29:48;;;;;;;36.28;17.42;;;8.60;94.90;;;;;;5037428;28;20041;-69
2021/12/14 07:32:13;;;;;;;38.38;17.55;;;8.60;95.00;;;;;;5045321;28;20104;-69
2021/12/14 07:34:39;;;;;;;38.15;19.55;;;8.60;95.20;;;;;;5041069;28;20092;-70
2021/12/14 07:37:05;;;;;;;33.58;17.15;;;8.60;95.30;;;;;;5057930;28;20028;-70
2021/12/14 07:39:31;;;;;;;35.97;16.90;;;8.60;95.40;;;;;;5047366;28;20427;-69
2021/12/14 07:41:59;;;;;;;36.05;17.40;;;8.60;95.40;;;;;;5038524;28;20035;-70
2021/12/14 07:44:32;;;;;;;33.08;16.70;;;8.60;95.40;;;;;;5037662;28;20086;-69
2021/12/14 07:47:19;;;;;;;34.75;17.27;;;8.60;95.30;;;;;;5043902;28;20108;-69
2021/12/14 07:49:54;;;;;;;32.15;15.02;;;8.50;95.40;;;;;;5040109;28;20078;-70
2021/12/14 07:52:23;;;;;;;32.50;15.32;;;8.60;95.40;;;;;;5035014;28;20504;-69
2021/12/14 07:55:00;;;;;;;31.00;15.40;;;8.50;95.30;;;;;;5042165;28;20017;-70
2021/12/14 07:57:31;;;;;;;30.38;15.50;;;8.60;95.30;;;;;;5031501;28;20053;-69
2021/12/14 08:00:10;;;;;;;34.00;16.45;;;8.60;95.40;;;;;;5044891;28;20028;-70
2021/12/14 08:02:46;;;;;;;32.75;15.55;;;8.60;95.30;;;;;;5037125;28;20034;-69
2021/12/14 08:05:27;;;;;;;34.22;16.23;;;8.60;95.50;;;;;;5042337;28;20024;-69
2021/12/14 08:08:00;;;;;;;36.72;16.05;;;8.60;95.50;;;;;;5044210;28;20028;-69
2021/12/14 08:10:40;;;;;;;39.63;15.98;;;8.60;95.00;;;;;;5043284;28;20439;-70
2021/12/14 08:13:14;;;;;;;37.40;15.93;;;8.60;94.80;;;;;;5047511;28;20392;-71
2021/12/14 08:15:53;;;;;;;41.20;16.73;;;8.60;94.80;;;;;;5034964;28;20104;-70
2021/12/14 08:18:27;;;;;;;38.65;16.98;;;8.60;94.70;;;;;;5041672;28;20037;-70
2021/12/14 08:20:59;;;;;;;41.53;16.50;;;8.60;94.60;;;;;;5051662;28;20020;-70
2021/12/14 08:23:31;;;;;;;42.05;16.88;;;8.60;94.60;;;;;;5046386;28;20053;-69
2021/12/14 08:26:06;;;;;;;41.38;17.55;;;8.60;94.60;;;;;;5046407;28;20024;-69
2021/12/14 08:28:54;;;;;;;43.65;17.58;;;8.60;94.70;;;;;;5052570;28;20028;-70
2021/12/14 08:31:46;;;;;;;48.03;18.30;;;8.60;94.80;;;;;;5050897;28;20048;-69
2021/12/14 08:34:18;;;;;;;42.60;17.35;;;8.60;94.90;;;;;;5039167;28;20547;-70
2021/12/14 08:36:52;;;;;;;41.83;17.42;;;8.70;95.10;;;;;;5050177;28;20048;-69
2021/12/14 08:39:29;;;;;;;45.03;17.05;;;8.70;95.20;;;;;;5049997;28;20030;-70
2021/12/14 08:42:13;;;;;;;42.78;16.50;;;8.70;95.30;;;;;;5047047;28;20021;-69
2021/12/14 08:44:50;;;;;;;41.22;16.88;;;8.70;95.30;;;;;;5041265;28;20110;-69
2021/12/14 08:47:32;;;;;;;45.05;17.13;;;8.70;95.30;;;;;;5040485;28;20021;-69
2021/12/14 08:50:02;;;;;;;45.08;17.23;;;8.80;95.30;;;;;;5041354;28;20036;-69
2021/12/14 08:52:29;;;;;;;49.75;17.92;;;8.80;95.40;;;;;;5048416;28;20033;-69
2021/12/14 08:54:56;;;;;;;44.13;18.00;;;8.80;95.00;;;;;;5045375;28;20025;-69
2021/12/14 08:57:25;;;;;;;54.35;19.02;;;8.80;95.00;;;;;;5043036;28;20082;-70
2021/12/14 08:59:55;;;;;;;46.70;18.17;;;8.80;95.10;;;;;;5034858;28;20030;-70
2021/12/14 09:02:24;;;;;;;45.22;17.63;;;8.90;95.10;;;;;;5038533;28;20500;-70
2021/12/14 09:04:56;;;;;;;54.03;19.48;;;8.90;94.70;;;;;;5047622;28;20054;-70
2021/12/14 09:07:26;;;;;;;53.88;21.15;;;8.90;94.60;;;;;;5053281;28;20033;-70
2021/12/14 09:09:53;;;;;;;;;;;8.90;94.80;;;;;;5049586;28;20564;-69
2021/12/14 09:12:24;;;;;;;46.05;17.95;;;8.90;94.90;;;;;;5057228;28;19996;-70
2021/12/14 09:14:50;;;;;;;;;;;8.90;94.90;;;;;;5060792;28;20387;-69
2021/12/14 09:17:22;;;;;;;43.95;16.33;;;8.90;94.90;;;;;;5048173;28;19921;-69
2021/12/14 09:19:59;;;;;;;50.42;17.65;;;8.90;94.80;;;;;;5044578;28;20488;-69
2021/12/14 09:22:33;;;;;;;46.42;17.95;;;8.90;94.50;;;;;;5044659;28;20040;-70
2021/12/14 09:25:00;;;;;;;50.70;18.35;;;9.00;94.70;;;;;;5053907;28;20024;-69
2021/12/14 09:27:29;;;;;;;41.63;17.63;;;9.00;94.80;;;;;;5034337;28;20041;-69
2021/12/14 09:29:55;;;;;;;39.28;15.50;;;9.00;94.60;;;;;;5049512;28;20079;-69
2021/12/14 09:32:27;;;;;;;39.72;15.20;;;9.00;94.30;;;;;;5038579;28;20025;-69
2021/12/14 09:34:55;;;;;;;36.97;15.88;;;9.00;94.20;;;;;;5043262;28;20060;-69
2021/12/14 09:37:21;;;;;;;41.80;16.13;;;9.00;94.20;;;;;;5048640;28;20448;-70
2021/12/14 09:39:52;;;;;;;36.88;16.17;;;9.00;94.30;;;;;;5034673;28;20419;-69
2021/12/14 09:42:26;;;;;;;42.55;16.45;;;9.10;94.10;;;;;;5042295;28;20025;-70
2021/12/14 09:44:54;;;;;;;34.92;13.52;;;9.00;93.90;;;;;;5065078;28;20401;-70
2021/12/14 09:47:26;;;;;;;38.75;16.08;;;9.10;93.60;;;;;;5047853;28;20054;-70
2021/12/14 09:49:53;;;;;;;36.20;13.95;;;9.00;93.50;;;;;;5047798;28;20036;-70
2021/12/14 09:52:31;;;;;;;36.92;15.77;;;9.10;93.50;;;;;;5050293;28;20021;-69
2021/12/14 09:54:58;;;;;;;33.08;14.15;;;9.10;93.50;;;;;;5052385;28;20036;-70
2021/12/14 09:57:29;;;;;;;32.95;14.00;;;9.10;93.60;;;;;;5045303;28;20056;-69
2021/12/14 09:59:56;;;;;;;;;;;9.10;93.20;;;;;;5051742;28;20020;-69
2021/12/14 10:02:31;;;;;;;26.92;11.68;;;9.10;93.30;;;;;;5037455;28;20301;-70
2021/12/14 10:05:17;;;;;;;30.95;13.32;;;9.10;93.50;;;;;;5041898;28;20484;-70
2021/12/14 10:07:46;;;;;;;23.73;11.68;;;9.10;93.20;;;;;;5038485;28;20121;-70
2021/12/14 10:10:17;;;;;;;23.20;10.25;;;9.20;93.10;;;;;;5037132;28;20016;-70
2021/12/14 10:12:58;;;;;;;25.92;12.38;;;9.20;93.10;;;;;;5033508;28;20026;-70
2021/12/14 10:15:40;;;;;;;30.15;13.23;;;9.20;93.00;;;;;;5034194;28;20018;-70
2021/12/14 10:18:15;;;;;;;28.98;12.70;;;9.20;93.20;;;;;;5048596;28;20033;-70
2021/12/14 10:21:11;;;;;;;29.75;12.85;;;9.30;93.20;;;;;;5039005;28;20021;-70
2021/12/14 10:23:51;;;;;;;35.05;15.55;;;9.30;93.40;;;;;;5048202;28;20032;-70
2021/12/14 10:26:23;;;;;;;37.67;15.63;;;9.30;93.70;;;;;;5048279;28;20025;-70
2021/12/14 10:28:53;;;;;;;33.58;14.95;;;9.30;93.70;;;;;;5048525;28;20032;-70
2021/12/14 10:31:36;;;;;;;36.70;15.43;;;9.40;93.70;;;;;;5053006;28;20037;-70
2021/12/14 10:34:08;;;;;;;34.03;15.50;;;9.40;93.80;;;;;;5045175;28;20021;-70
2021/12/14 10:36:43;;;;;;;33.33;14.52;;;9.50;93.90;;;;;;5047161;28;20518;-70
2021/12/14 10:39:36;;;;;;;43.38;17.75;;;9.50;93.80;;;;;;5047695;28;20052;-70
2021/12/14 10:45:03;;;;;;;40.42;16.08;;;9.50;93.30;;;;;;5036414;28;20068;-68
2021/12/14 10:47:32;;;;;;;30.73;13.20;;;9.50;93.20;;;;;;5036308;28;20404;-70
2021/12/14 10:50:01;;;;;;;24.50;10.95;;;9.60;93.30;;;;;;5042071;28;20407;-70
2021/12/14 10:52:30;;;;;;;24.27;11.10;;;9.60;92.60;;;;;;5047321;28;20060;-69
2021/12/14 10:55:08;;;;;;;24.75;11.57;;;9.60;92.00;;;;;;5047407;28;20025;-69
2021/12/14 10:57:35;;;;;;;19.92;9.95;;;9.60;92.00;;;;;;5035906;28;20046;-70
2021/12/14 11:00:05;;;;;;;21.40;10.95;;;9.70;92.10;;;;;;5044471;28;20388;-70
2021/12/14 11:02:39;;;;;;;22.58;10.38;;;9.60;91.80;;;;;;5044117;28;20021;-69
2021/12/14 11:05:05;;;;;;;21.25;10.02;;;9.60;91.80;;;;;;5056031;28;20487;-70
2021/12/14 11:07:39;;;;;;;20.02;10.07;;;9.60;91.80;;;;;;5052808;28;20024;-70
2021/12/14 11:10:19;;;;;;;20.20;9.35;;;9.60;91.80;;;;;;5034879;28;20054;-69
2021/12/14 11:12:49;;;;;;;20.75;10.60;;;9.70;91.70;;;;;;5032582;28;20048;-68
2021/12/14 11:15:23;;;;;;;19.67;9.60;;;9.70;91.50;;;;;;5033558;28;20036;-68
2021/12/14 11:18:24;;;;;;;21.38;10.68;;;9.80;91.80;;;;;;5036154;28;20033;-68
2021/12/14 11:21:12;;;;;;;25.30;10.98;;;9.80;91.80;;;;;;5034456;28;20436;-69
2021/12/14 11:23:45;;;;;;;23.15;11.73;;;9.90;92.20;;;;;;5036021;28;20033;-68
2021/12/14 11:26:24;;;;;;;26.23;12.18;;;9.80;92.40;;;;;;5035310;28;20025;-68
2021/12/14 11:29:00;;;;;;;26.23;12.52;;;9.80;92.10;;;;;;5035465;28;20029;-68
2021/12/14 11:31:29;;;;;;;25.02;12.40;;;9.90;92.20;;;;;;5035199;28;20029;-68
2021/12/14 11:34:08;;;;;;;28.27;13.70;;;9.90;92.30;;;;;;5042358;28;20033;-68
2021/12/14 11:36:36;;;;;;;24.10;11.48;;;10.00;92.60;;;;;;5046951;28;20439;-68
2021/12/14 11:39:27;;;;;;;20.95;10.93;;;10.00;92.30;;;;;;5040150;28;20032;-68
2021/12/14 11:42:07;;;;;;;17.30;8.40;;;10.00;92.00;;;;;;5035207;28;20029;-68
2021/12/14 11:44:37;;;;;;;15.05;7.13;;;10.00;91.70;;;;;;5044624;28;20372;-68
2021/12/14 11:50:22;;;;;;;17.63;9.23;;;10.00;91.40;;;;;;5035231;28;20034;-68
2021/12/14 11:53:02;;;;;;;17.98;9.15;;;10.00;91.30;;;;;;5034782;28;20120;-68
2021/12/14 11:55:34;;;;;;;18.92;9.45;;;10.00;91.70;;;;;;5036997;28;20029;-68
2021/12/14 11:58:23;;;;;;;16.55;9.32;;;10.00;91.50;;;;;;5046238;28;20045;-68
2021/12/14 12:00:58;;;;;;;16.65;8.38;;;10.10;91.60;;;;;;5032665;28;20022;-68
2021/12/14 12:03:33;;;;;;;14.80;8.45;;;10.20;91.00;;;;;;5044531;28;20120;-69
2021/12/14 12:06:32;;;;;;;19.15;9.30;;;10.30;91.10;;;;;;5034981;28;20037;-69
2021/12/14 12:11:46;;;;;;;17.25;9.70;;;10.40;91.50;;;;;;5045653;28;20032;-68
2021/12/14 12:14:27;;;;;;;18.75;9.48;;;10.50;91.10;;;;;;5037716;28;20029;-69
2021/12/14 12:16:57;;;;;;;18.20;9.10;;;10.60;90.70;;;;;;5034802;28;20030;-69
2021/12/14 12:19:27;;;;;;;16.80;8.83;;;10.70;90.50;;;;;;5035072;28;20040;-69
2021/12/14 12:21:55;;;;;;;16.75;9.82;;;10.90;90.40;;;;;;5032575;28;20444;-68
2021/12/14 12:24:44;;;;;;;16.58;9.60;;;11.00;90.10;;;;;;5032743;28;20514;-69
2021/12/14 12:27:19;;;;;;;15.65;9.25;;;11.20;89.60;;;;;;5046367;28;20024;-68
2021/12/14 12:29:45;;;;;;;15.35;9.52;;;11.50;89.30;;;;;;5045562;28;20448;-69
2021/12/14 12:32:23;;;;;;;20.40;9.27;;;11.70;88.10;;;;;;5042258;28;20029;-69
2021/12/14 12:34:50;;;;;;;15.50;9.35;;;11.70;86.40;;;;;;5047312;28;20029;-69
2021/12/14 12:37:17;;;;;;;16.15;10.00;;;11.70;87.10;;;;;;5044945;28;20044;-69
2021/12/14 12:39:52;;;;;;;16.85;9.60;;;11.70;87.80;;;;;;5030995;28;20105;-69
2021/12/14 12:42:18;;;;;;;17.75;9.38;;;11.80;87.50;;;;;;5032251;28;20065;-69
2021/12/14 12:44:44;;;;;;;16.70;9.18;;;11.90;87.10;;;;;;5034921;28;20049;-68
2021/12/14 12:47:22;;;;;;;16.70;8.43;;;12.00;87.70;;;;;;5041874;28;20056;-69
2021/12/14 12:50:06;;;;;;;12.88;7.80;;;12.10;87.70;;;;;;5040821;28;20021;-68
2021/12/14 12:52:37;;;;;;;12.43;7.63;;;12.20;87.70;;;;;;5041961;28;20388;-68
2021/12/14 12:55:21;;;;;;;15.15;7.70;;;12.30;86.50;;;;;;5034550;28;20380;-68
2021/12/14 12:58:02;;;;;;;12.10;6.97;;;12.40;86.70;;;;;;5031768;28;20045;-68
2021/12/14 13:00:43;;;;;;;12.60;7.68;;;12.40;85.90;;;;;;5042808;28;20804;-68
2021/12/14 13:03:16;;;;;;;11.40;6.32;;;12.30;87.20;;;;;;5048898;28;20024;-68
2021/12/14 13:05:44;;;;;;;11.45;6.35;;;12.30;85.70;;;;;;5039218;28;20036;-68
2021/12/14 13:08:36;;;;;;;11.82;6.88;;;12.30;84.70;;;;;;5050073;28;20293;-68
2021/12/14 13:11:04;;;;;;;12.20;7.05;;;12.20;86.10;;;;;;5042600;28;20030;-69
2021/12/14 13:13:42;;;;;;;12.43;7.65;;;12.20;86.20;;;;;;5046390;28;20468;-69
2021/12/14 13:16:15;;;;;;;12.63;7.63;;;12.20;86.80;;;;;;5038968;28;20032;-69
2021/12/14 13:18:55;;;;;;;15.65;8.23;;;12.20;87.80;;;;;;5033775;28;20514;-69
2021/12/14 13:21:57;;;;;;;12.13;7.68;;;12.20;88.40;;;;;;5034021;28;20374;-69
2021/12/14 13:24:26;;;;;;;13.25;7.97;;;12.20;88.40;;;;;;5053055;28;20111;-68
2021/12/14 13:26:56;;;;;;;11.73;7.07;;;12.50;87.90;;;;;;5052113;28;20109;-69
2021/12/14 13:29:34;;;;;;;11.37;6.73;;;12.80;87.60;;;;;;5055832;28;20039;-68
2021/12/14 13:32:25;;;;;;;11.15;6.07;;;13.00;85.40;;;;;;5051322;28;20024;-68
2021/12/14 13:34:51;;;;;;;;;;;13.00;82.20;;;;;;5037927;28;20033;-68
2021/12/14 13:37:32;;;;;;;10.88;5.90;;;12.80;81.90;;;;;;5045229;28;19971;-68
2021/12/14 13:40:01;;;;;;;10.48;5.93;;;12.70;83.90;;;;;;5061522;28;20037;-68
2021/12/14 13:42:40;;;;;;;10.73;5.93;;;12.60;83.70;;;;;;5049699;28;20401;-68
2021/12/14 13:45:10;;;;;;;11.32;6.70;;;12.60;85.10;;;;;;5039807;28;20020;-68
2021/12/14 13:47:36;;;;;;;9.40;5.95;;;12.40;84.20;;;;;;5058653;28;20036;-68